createdAt,value
2017-11-30T00:01:26.475Z,998.93
2017-11-30T00:02:26.402Z,998.90
2017-11-30T00:04:19.673Z,998.91
2017-11-30T00:05:19.579Z,998.86
2017-11-30T00:07:12.833Z,998.88
2017-11-30T00:08:12.760Z,998.87
2017-11-30T00:10:06.027Z,998.87
2017-11-30T00:11:05.938Z,998.90
2017-11-30T00:12:59.206Z,998.87
2017-11-30T00:13:59.114Z,998.86
2017-11-30T00:15:52.373Z,998.85
2017-11-30T00:16:52.301Z,998.80
2017-11-30T00:18:45.599Z,998.77
2017-11-30T00:19:45.477Z,998.80
2017-11-30T00:21:38.729Z,998.75
2017-11-30T00:22:38.656Z,998.69
2017-11-30T00:24:31.925Z,998.72
2017-11-30T00:25:31.831Z,998.70
2017-11-30T00:27:25.081Z,998.67
2017-11-30T00:28:25.006Z,998.68
2017-11-30T00:30:18.276Z,998.73
2017-11-30T00:31:18.185Z,998.71
2017-11-30T00:33:11.453Z,998.66
2017-11-30T00:34:11.362Z,998.64
2017-11-30T00:36:04.612Z,998.60
2017-11-30T00:37:04.545Z,998.60
2017-11-30T00:38:57.812Z,998.59
2017-11-30T00:39:57.714Z,998.56
2017-11-30T00:41:50.964Z,998.62
2017-11-30T00:42:50.895Z,998.56
2017-11-30T00:44:44.159Z,998.55
2017-11-30T00:45:44.077Z,998.56
2017-11-30T00:47:37.318Z,998.52
2017-11-30T00:48:37.247Z,998.48
2017-11-30T00:50:30.514Z,998.50
2017-11-30T00:51:30.420Z,998.43
2017-11-30T00:53:23.701Z,998.46
2017-11-30T00:54:23.599Z,998.43
2017-11-30T00:56:16.856Z,998.45
2017-11-30T00:57:16.784Z,998.42
2017-11-30T00:59:10.043Z,998.37
2017-11-30T01:00:09.951Z,998.40
2017-11-30T01:02:03.204Z,998.32
2017-11-30T01:03:03.129Z,998.34
2017-11-30T01:04:56.399Z,998.37
2017-11-30T01:05:56.306Z,998.30
2017-11-30T01:07:49.562Z,998.28
2017-11-30T01:08:49.484Z,998.27
2017-11-30T01:10:42.754Z,998.29
2017-11-30T01:11:42.663Z,998.31
2017-11-30T01:13:35.931Z,998.28
2017-11-30T01:14:35.840Z,998.27
2017-11-30T01:16:29.110Z,998.26
2017-11-30T01:17:29.016Z,998.21
2017-11-30T01:19:22.280Z,998.20
2017-11-30T01:20:22.186Z,998.18
2017-11-30T01:22:15.434Z,998.20
2017-11-30T01:23:15.364Z,998.21
2017-11-30T01:25:08.631Z,998.21
2017-11-30T01:26:08.541Z,998.21
2017-11-30T01:28:01.790Z,998.22
2017-11-30T01:29:01.717Z,998.23
2017-11-30T01:30:54.985Z,998.25
2017-11-30T01:31:54.894Z,998.26
2017-11-30T01:33:48.162Z,998.27
2017-11-30T01:34:48.074Z,998.28
2017-11-30T01:36:41.323Z,998.26
2017-11-30T01:37:41.250Z,998.25
2017-11-30T01:39:34.508Z,998.28
2017-11-30T01:40:34.420Z,998.26
2017-11-30T01:42:27.667Z,998.26
2017-11-30T01:43:27.596Z,998.24
2017-11-30T01:45:20.863Z,998.27
2017-11-30T01:46:20.774Z,998.20
2017-11-30T01:48:14.023Z,998.19
2017-11-30T01:49:13.952Z,998.17
2017-11-30T01:51:07.220Z,998.18
2017-11-30T01:52:07.129Z,998.18
2017-11-30T01:54:00.398Z,998.17
2017-11-30T01:55:00.307Z,998.18
2017-11-30T01:56:53.557Z,998.17
2017-11-30T01:57:53.487Z,998.15
2017-11-30T01:59:46.754Z,998.12
2017-11-30T02:00:46.654Z,998.18
2017-11-30T02:02:39.919Z,998.14
2017-11-30T02:03:39.846Z,998.15
2017-11-30T02:05:33.113Z,998.14
2017-11-30T02:06:33.021Z,998.16
2017-11-30T02:08:26.274Z,998.15
2017-11-30T02:09:26.199Z,998.12
2017-11-30T02:11:19.475Z,998.08
2017-11-30T02:12:19.377Z,998.15
2017-11-30T02:14:12.648Z,998.09
2017-11-30T02:15:12.571Z,998.06
2017-11-30T02:17:05.810Z,998.08
2017-11-30T02:18:05.735Z,998.11
2017-11-30T02:19:58.996Z,998.11
2017-11-30T02:20:58.902Z,998.08
2017-11-30T02:22:52.159Z,998.06
2017-11-30T02:23:52.083Z,998.01
2017-11-30T02:25:45.377Z,998.04
2017-11-30T02:26:45.255Z,997.98
2017-11-30T02:28:38.513Z,997.98
2017-11-30T02:29:38.440Z,997.97
2017-11-30T02:31:31.706Z,997.97
2017-11-30T02:32:31.617Z,997.92
2017-11-30T02:34:24.888Z,997.88
2017-11-30T02:35:24.796Z,997.86
2017-11-30T02:37:18.045Z,997.82
2017-11-30T02:38:17.973Z,997.89
2017-11-30T02:40:11.242Z,997.82
2017-11-30T02:41:11.149Z,997.83
2017-11-30T02:43:04.395Z,997.81
2017-11-30T02:44:04.327Z,997.82
2017-11-30T02:45:57.597Z,997.77
2017-11-30T02:46:57.504Z,997.81
2017-11-30T02:48:50.756Z,997.76
2017-11-30T02:49:50.684Z,997.73
2017-11-30T02:51:43.954Z,997.70
2017-11-30T02:52:43.870Z,997.73
2017-11-30T02:54:37.130Z,997.77
2017-11-30T02:55:37.033Z,997.81
2017-11-30T02:57:30.371Z,997.80
2017-11-30T02:58:30.299Z,997.81
2017-11-30T03:00:23.567Z,997.74
2017-11-30T03:01:23.474Z,997.73
2017-11-30T03:03:16.726Z,997.72
2017-11-30T03:04:16.653Z,997.70
2017-11-30T03:06:09.921Z,997.63
2017-11-30T03:07:09.833Z,997.64
2017-11-30T03:09:03.071Z,997.65
2017-11-30T03:10:02.999Z,997.60
2017-11-30T03:11:56.268Z,997.57
2017-11-30T03:12:56.176Z,997.60
2017-11-30T03:14:49.445Z,997.56
2017-11-30T03:15:49.354Z,997.62
2017-11-30T03:17:42.611Z,997.60
2017-11-30T03:18:42.536Z,997.63
2017-11-30T03:20:35.802Z,997.64
2017-11-30T03:21:35.706Z,997.64
2017-11-30T03:23:28.958Z,997.66
2017-11-30T03:24:28.884Z,997.64
2017-11-30T03:26:23.153Z,997.58
2017-11-30T03:27:23.060Z,997.54
2017-11-30T03:29:16.374Z,997.58
2017-11-30T03:30:16.304Z,997.55
2017-11-30T03:32:09.568Z,997.54
2017-11-30T03:33:09.477Z,997.56
2017-11-30T03:35:02.746Z,997.51
2017-11-30T03:36:02.653Z,997.50
2017-11-30T03:37:55.908Z,997.56
2017-11-30T03:38:55.830Z,997.53
2017-11-30T03:40:49.098Z,997.47
2017-11-30T03:41:49.005Z,997.52
2017-11-30T03:43:42.260Z,997.50
2017-11-30T03:44:42.192Z,997.51
2017-11-30T03:46:35.451Z,997.50
2017-11-30T03:47:35.398Z,997.48
2017-11-30T03:49:28.610Z,997.44
2017-11-30T03:50:28.535Z,997.42
2017-11-30T03:52:21.805Z,997.40
2017-11-30T03:53:21.712Z,997.48
2017-11-30T03:55:14.981Z,997.47
2017-11-30T03:56:14.889Z,997.43
2017-11-30T03:58:08.157Z,997.44
2017-11-30T03:59:08.061Z,997.46
2017-11-30T04:01:01.330Z,997.45
2017-11-30T04:02:01.240Z,997.46
2017-11-30T04:03:54.489Z,997.48
2017-11-30T04:04:54.418Z,997.46
2017-11-30T04:06:47.686Z,997.46
2017-11-30T04:07:47.596Z,997.40
2017-11-30T04:09:40.851Z,997.41
2017-11-30T04:10:40.773Z,997.43
2017-11-30T04:12:34.039Z,997.37
2017-11-30T04:13:33.946Z,997.38
2017-11-30T04:15:27.213Z,997.42
2017-11-30T04:16:27.120Z,997.39
2017-11-30T04:18:20.373Z,997.38
2017-11-30T04:19:20.298Z,997.38
2017-11-30T04:21:13.566Z,997.36
2017-11-30T04:22:13.473Z,997.36
2017-11-30T04:24:06.723Z,997.36
2017-11-30T04:25:06.648Z,997.34
2017-11-30T04:26:59.915Z,997.35
2017-11-30T04:27:59.824Z,997.31
2017-11-30T04:29:53.067Z,997.31
2017-11-30T04:30:52.992Z,997.29
2017-11-30T04:32:46.255Z,997.28
2017-11-30T04:33:46.165Z,997.33
2017-11-30T04:35:39.433Z,997.29
2017-11-30T04:36:39.341Z,997.26
2017-11-30T04:38:32.590Z,997.29
2017-11-30T04:39:32.514Z,997.28
2017-11-30T04:41:25.785Z,997.27
2017-11-30T04:42:25.691Z,997.26
2017-11-30T04:44:18.942Z,997.27
2017-11-30T04:45:18.867Z,997.25
2017-11-30T04:47:12.136Z,997.25
2017-11-30T04:48:12.043Z,997.22
2017-11-30T04:50:05.293Z,997.19
2017-11-30T04:51:05.224Z,997.20
2017-11-30T04:52:58.486Z,997.17
2017-11-30T04:53:58.395Z,997.21
2017-11-30T04:55:51.662Z,997.21
2017-11-30T04:56:51.610Z,997.20
2017-11-30T04:58:44.818Z,997.19
2017-11-30T04:59:44.752Z,997.23
2017-11-30T05:01:38.016Z,997.15
2017-11-30T05:02:37.919Z,997.18
2017-11-30T05:04:31.167Z,997.16
2017-11-30T05:05:31.095Z,997.19
2017-11-30T05:07:24.400Z,997.16
2017-11-30T05:08:24.307Z,997.15
2017-11-30T05:10:17.555Z,997.19
2017-11-30T05:11:17.481Z,997.15
2017-11-30T05:13:10.754Z,997.13
2017-11-30T05:14:10.667Z,997.15
2017-11-30T05:16:03.923Z,997.11
2017-11-30T05:17:03.831Z,997.10
2017-11-30T05:18:57.074Z,997.10
2017-11-30T05:19:57.001Z,997.08
2017-11-30T05:21:50.272Z,997.08
2017-11-30T05:22:50.194Z,997.11
2017-11-30T05:24:43.431Z,997.09
2017-11-30T05:25:43.354Z,997.04
2017-11-30T05:27:36.622Z,997.05
2017-11-30T05:28:36.531Z,997.05
2017-11-30T05:30:29.785Z,997.00
2017-11-30T05:31:29.711Z,997.02
2017-11-30T05:33:22.977Z,996.98
2017-11-30T05:34:22.886Z,997.01
2017-11-30T05:36:16.156Z,997.02
2017-11-30T05:37:16.064Z,997.00
2017-11-30T05:39:09.374Z,996.98
2017-11-30T05:40:09.300Z,996.98
2017-11-30T05:42:02.568Z,996.91
2017-11-30T05:43:02.478Z,996.90
2017-11-30T05:44:55.727Z,996.90
2017-11-30T05:45:55.660Z,996.88
2017-11-30T05:47:49.918Z,996.85
2017-11-30T05:48:49.832Z,996.85
2017-11-30T05:50:43.077Z,996.82
2017-11-30T05:51:43.002Z,996.82
2017-11-30T05:53:36.271Z,996.85
2017-11-30T05:54:36.179Z,996.84
2017-11-30T05:56:29.442Z,996.86
2017-11-30T05:57:29.354Z,996.86
2017-11-30T05:59:22.594Z,996.85
2017-11-30T06:00:22.517Z,996.85
2017-11-30T06:02:15.785Z,996.83
2017-11-30T06:03:15.692Z,996.84
2017-11-30T06:05:08.941Z,996.84
2017-11-30T06:06:08.869Z,996.87
2017-11-30T06:08:02.147Z,996.89
2017-11-30T06:09:02.076Z,996.87
2017-11-30T06:10:55.293Z,996.88
2017-11-30T06:11:55.220Z,996.86
2017-11-30T06:13:48.487Z,996.86
2017-11-30T06:14:48.396Z,996.80
2017-11-30T06:16:41.666Z,996.87
2017-11-30T06:17:41.572Z,996.86
2017-11-30T06:19:34.813Z,996.87
2017-11-30T06:20:34.739Z,996.87
2017-11-30T06:22:28.006Z,996.87
2017-11-30T06:23:27.916Z,996.85
2017-11-30T06:25:21.163Z,996.84
2017-11-30T06:26:21.090Z,996.84
2017-11-30T06:28:14.390Z,996.81
2017-11-30T06:29:14.296Z,996.82
2017-11-30T06:31:07.551Z,996.82
2017-11-30T06:32:07.473Z,996.84
2017-11-30T06:34:00.742Z,996.86
2017-11-30T06:35:00.648Z,996.86
2017-11-30T06:36:53.914Z,996.88
2017-11-30T06:37:53.825Z,996.87
2017-11-30T06:39:47.078Z,996.85
2017-11-30T06:40:47.008Z,996.87
2017-11-30T06:42:40.289Z,996.81
2017-11-30T06:43:40.186Z,996.85
2017-11-30T06:45:33.439Z,996.84
2017-11-30T06:46:33.363Z,996.86
2017-11-30T06:48:26.652Z,996.82
2017-11-30T06:49:26.557Z,996.81
2017-11-30T06:51:19.806Z,996.81
2017-11-30T06:52:19.733Z,996.78
2017-11-30T06:54:13.002Z,996.79
2017-11-30T06:55:12.911Z,996.77
2017-11-30T06:57:06.180Z,996.80
2017-11-30T06:58:06.085Z,996.84
2017-11-30T06:59:59.380Z,996.81
2017-11-30T07:00:59.299Z,996.86
2017-11-30T07:02:52.570Z,996.86
2017-11-30T07:03:52.475Z,996.82
2017-11-30T07:05:45.733Z,996.84
2017-11-30T07:06:45.654Z,996.86
2017-11-30T07:08:38.923Z,996.86
2017-11-30T07:09:38.832Z,996.91
2017-11-30T07:11:32.113Z,996.90
2017-11-30T07:12:32.005Z,996.95
2017-11-30T07:14:25.256Z,996.90
2017-11-30T07:15:25.185Z,996.98
2017-11-30T07:17:18.452Z,996.94
2017-11-30T07:18:18.361Z,996.93
2017-11-30T07:20:11.611Z,996.93
2017-11-30T07:21:11.542Z,996.94
2017-11-30T07:23:04.806Z,996.92
2017-11-30T07:24:04.712Z,996.90
2017-11-30T07:25:57.959Z,996.90
2017-11-30T07:26:57.888Z,996.85
2017-11-30T07:28:51.157Z,996.88
2017-11-30T07:29:51.064Z,996.90
2017-11-30T07:31:44.332Z,996.92
2017-11-30T07:32:44.240Z,996.93
2017-11-30T07:34:37.537Z,996.90
2017-11-30T07:35:37.442Z,996.94
2017-11-30T07:37:30.710Z,996.92
2017-11-30T07:38:30.615Z,996.94
2017-11-30T07:40:23.885Z,996.91
2017-11-30T07:41:23.794Z,996.93
2017-11-30T07:43:17.062Z,996.85
2017-11-30T07:44:16.969Z,996.85
2017-11-30T07:46:10.221Z,996.86
2017-11-30T07:47:10.148Z,996.89
2017-11-30T07:49:03.417Z,996.87
2017-11-30T07:50:03.348Z,996.90
2017-11-30T07:51:56.596Z,996.90
2017-11-30T07:52:56.501Z,996.92
2017-11-30T07:54:49.755Z,996.94
2017-11-30T07:55:49.681Z,996.98
2017-11-30T07:57:42.949Z,996.97
2017-11-30T07:58:42.858Z,997.01
2017-11-30T08:00:36.107Z,997.04
2017-11-30T08:01:36.036Z,997.06
2017-11-30T08:03:29.392Z,997.04
2017-11-30T08:04:29.298Z,997.06
2017-11-30T08:06:22.551Z,997.00
2017-11-30T08:07:22.477Z,997.03
2017-11-30T08:09:15.749Z,997.00
2017-11-30T08:10:15.657Z,997.04
2017-11-30T08:12:08.928Z,997.01
2017-11-30T08:13:08.834Z,997.01
2017-11-30T08:15:02.083Z,996.99
2017-11-30T08:16:02.011Z,997.01
2017-11-30T08:17:55.279Z,997.00
2017-11-30T08:18:55.187Z,997.01
2017-11-30T08:20:48.438Z,996.98
2017-11-30T08:21:48.364Z,997.01
2017-11-30T08:23:41.636Z,997.02
2017-11-30T08:24:41.541Z,997.02
2017-11-30T08:26:34.790Z,997.02
2017-11-30T08:27:34.717Z,997.03
2017-11-30T08:29:27.978Z,997.05
2017-11-30T08:30:27.887Z,997.03
2017-11-30T08:32:21.161Z,997.01
2017-11-30T08:33:21.065Z,997.02
2017-11-30T08:35:14.321Z,996.98
2017-11-30T08:36:14.249Z,996.96
2017-11-30T08:38:07.519Z,996.96
2017-11-30T08:39:07.424Z,996.91
2017-11-30T08:41:00.680Z,996.86
2017-11-30T08:42:00.600Z,996.90
2017-11-30T08:43:53.879Z,996.91
2017-11-30T08:44:53.777Z,996.87
2017-11-30T08:46:47.044Z,996.83
2017-11-30T08:47:46.960Z,996.89
2017-11-30T08:49:40.233Z,996.75
2017-11-30T08:50:40.142Z,996.82
2017-11-30T08:52:33.413Z,996.83
2017-11-30T08:53:33.318Z,996.81
2017-11-30T08:55:26.571Z,996.82
2017-11-30T08:56:26.493Z,996.86
2017-11-30T08:58:19.765Z,996.87
2017-11-30T08:59:19.674Z,996.81
2017-11-30T09:01:12.925Z,996.81
2017-11-30T09:02:12.853Z,996.79
2017-11-30T09:04:06.118Z,996.77
2017-11-30T09:05:06.048Z,996.82
2017-11-30T09:06:59.373Z,996.77
2017-11-30T09:07:59.301Z,996.84
2017-11-30T09:09:52.573Z,996.77
2017-11-30T09:10:52.479Z,996.81
2017-11-30T09:12:45.750Z,996.77
2017-11-30T09:13:45.672Z,996.74
2017-11-30T09:15:38.919Z,996.74
2017-11-30T09:16:38.837Z,996.74
2017-11-30T09:18:32.110Z,996.70
2017-11-30T09:19:32.014Z,996.73
2017-11-30T09:21:25.266Z,996.73
2017-11-30T09:22:25.195Z,996.78
2017-11-30T09:24:18.464Z,996.77
2017-11-30T09:25:18.399Z,996.76
2017-11-30T09:27:11.623Z,996.79
2017-11-30T09:28:11.552Z,996.85
2017-11-30T09:30:04.826Z,996.85
2017-11-30T09:31:04.737Z,996.85
2017-11-30T09:32:57.992Z,996.78
2017-11-30T09:33:57.897Z,996.76
2017-11-30T09:35:51.137Z,996.78
2017-11-30T09:36:51.068Z,996.81
2017-11-30T09:38:44.333Z,996.79
2017-11-30T09:39:44.243Z,996.78
2017-11-30T09:41:37.488Z,996.79
2017-11-30T09:42:37.412Z,996.79
2017-11-30T09:44:30.682Z,996.74
2017-11-30T09:45:30.589Z,996.68
2017-11-30T09:47:23.833Z,996.71
2017-11-30T09:48:23.761Z,996.71
2017-11-30T09:50:17.036Z,996.67
2017-11-30T09:51:16.944Z,996.65
2017-11-30T09:53:10.214Z,996.62
2017-11-30T09:54:10.121Z,996.66
2017-11-30T09:56:03.367Z,996.64
2017-11-30T09:57:03.307Z,996.59
2017-11-30T09:58:56.563Z,996.56
2017-11-30T09:59:56.595Z,996.54
2017-11-30T10:01:49.715Z,996.53
2017-11-30T10:02:49.645Z,996.52
2017-11-30T10:04:42.908Z,996.50
2017-11-30T10:05:42.815Z,996.49
2017-11-30T10:07:36.079Z,996.49
2017-11-30T10:08:36.153Z,996.48
2017-11-30T10:10:29.244Z,996.45
2017-11-30T10:11:29.152Z,996.44
2017-11-30T10:13:22.409Z,996.41
2017-11-30T10:14:22.322Z,996.43
2017-11-30T10:16:15.566Z,996.39
2017-11-30T10:17:15.488Z,996.41
2017-11-30T10:19:09.740Z,996.43
2017-11-30T10:20:09.650Z,996.42
2017-11-30T10:22:02.892Z,996.39
2017-11-30T10:23:02.819Z,996.40
2017-11-30T10:24:56.077Z,996.38
2017-11-30T10:25:55.990Z,996.38
2017-11-30T10:27:49.236Z,996.41
2017-11-30T10:28:49.196Z,996.43
2017-11-30T10:30:42.426Z,996.38
2017-11-30T10:31:42.331Z,996.40
2017-11-30T10:33:35.598Z,996.40
2017-11-30T10:34:35.503Z,996.38
2017-11-30T10:36:28.751Z,996.40
2017-11-30T10:37:28.673Z,996.36
2017-11-30T10:39:21.937Z,996.38
2017-11-30T10:40:21.840Z,996.37
2017-11-30T10:42:15.095Z,996.36
2017-11-30T10:43:15.011Z,996.37
2017-11-30T10:45:08.269Z,996.35
2017-11-30T10:46:08.191Z,996.35
2017-11-30T10:48:01.423Z,996.30
2017-11-30T10:49:01.404Z,996.33
2017-11-30T10:50:54.609Z,996.27
2017-11-30T10:51:54.517Z,996.26
2017-11-30T10:53:47.776Z,996.23
2017-11-30T10:54:47.681Z,996.25
2017-11-30T10:56:40.927Z,996.25
2017-11-30T10:57:40.855Z,996.23
2017-11-30T10:59:34.117Z,996.22
2017-11-30T11:00:34.026Z,996.23
2017-11-30T11:02:27.307Z,996.21
2017-11-30T11:03:27.196Z,996.19
2017-11-30T11:05:20.466Z,996.20
2017-11-30T11:06:20.373Z,996.20
2017-11-30T11:08:13.631Z,996.19
2017-11-30T11:09:13.543Z,996.12
2017-11-30T11:11:06.803Z,996.15
2017-11-30T11:12:06.711Z,996.10
2017-11-30T11:13:59.973Z,996.12
2017-11-30T11:14:59.881Z,996.04
2017-11-30T11:16:53.124Z,996.06
2017-11-30T11:17:53.055Z,996.11
2017-11-30T11:19:46.314Z,996.05
2017-11-30T11:20:46.224Z,996.05
2017-11-30T11:22:39.466Z,996.07
2017-11-30T11:23:39.393Z,996.09
2017-11-30T11:25:32.654Z,996.10
2017-11-30T11:26:32.561Z,996.09
2017-11-30T11:28:25.805Z,996.10
2017-11-30T11:29:25.732Z,996.10
2017-11-30T11:31:18.997Z,996.06
2017-11-30T11:32:18.902Z,996.05
2017-11-30T11:34:12.177Z,996.04
2017-11-30T11:35:12.071Z,996.04
2017-11-30T11:37:05.369Z,996.00
2017-11-30T11:38:05.302Z,996.01
2017-11-30T11:39:58.585Z,995.97
2017-11-30T11:40:58.477Z,996.02
2017-11-30T11:42:51.718Z,996.00
2017-11-30T11:43:51.647Z,996.03
2017-11-30T11:45:44.915Z,996.03
2017-11-30T11:46:44.819Z,996.08
2017-11-30T11:48:38.064Z,996.02
2017-11-30T11:49:37.989Z,996.04
2017-11-30T11:51:31.251Z,996.08
2017-11-30T11:52:31.159Z,996.04
2017-11-30T11:54:24.422Z,996.05
2017-11-30T11:55:24.328Z,995.97
2017-11-30T11:57:17.581Z,996.01
2017-11-30T11:58:17.503Z,995.97
2017-11-30T12:00:10.771Z,996.00
2017-11-30T12:01:10.673Z,995.96
2017-11-30T12:03:03.919Z,995.95
2017-11-30T12:04:03.848Z,995.97
2017-11-30T12:05:57.107Z,995.97
2017-11-30T12:06:57.014Z,995.99
2017-11-30T12:08:50.282Z,995.96
2017-11-30T12:09:50.194Z,996.04
2017-11-30T12:11:43.450Z,996.01
2017-11-30T12:12:43.359Z,995.98
2017-11-30T12:14:36.622Z,996.04
2017-11-30T12:15:36.530Z,996.05
2017-11-30T12:17:29.776Z,996.01
2017-11-30T12:18:29.701Z,996.03
2017-11-30T12:20:22.972Z,996.02
2017-11-30T12:21:22.881Z,996.01
2017-11-30T12:23:16.138Z,995.99
2017-11-30T12:24:16.066Z,996.03
2017-11-30T12:26:09.395Z,995.97
2017-11-30T12:27:09.300Z,995.97
2017-11-30T12:29:02.568Z,995.98
2017-11-30T12:30:02.479Z,995.95
2017-11-30T12:31:55.749Z,995.97
2017-11-30T12:32:55.665Z,995.99
2017-11-30T12:34:48.930Z,996.05
2017-11-30T12:35:48.842Z,996.04
2017-11-30T12:37:42.095Z,996.00
2017-11-30T12:38:42.027Z,996.04
2017-11-30T12:40:35.393Z,996.01
2017-11-30T12:41:35.300Z,996.00
2017-11-30T12:43:28.556Z,995.98
2017-11-30T12:44:28.483Z,995.98
2017-11-30T12:46:21.756Z,995.97
2017-11-30T12:47:21.665Z,995.96
2017-11-30T12:49:14.929Z,995.91
2017-11-30T12:50:14.837Z,995.94
2017-11-30T12:52:08.083Z,995.99
2017-11-30T12:53:08.007Z,995.98
2017-11-30T12:55:01.277Z,995.96
2017-11-30T12:56:01.186Z,995.93
2017-11-30T12:57:54.439Z,995.92
2017-11-30T12:58:54.374Z,995.91
2017-11-30T13:00:47.651Z,995.94
2017-11-30T13:01:47.557Z,995.93
2017-11-30T13:03:40.804Z,995.91
2017-11-30T13:04:40.731Z,995.94
2017-11-30T13:06:34.002Z,995.96
2017-11-30T13:07:33.895Z,995.93
2017-11-30T13:09:27.168Z,995.90
2017-11-30T13:10:27.077Z,995.88
2017-11-30T13:12:20.321Z,995.87
2017-11-30T13:13:20.247Z,995.81
2017-11-30T13:15:14.511Z,995.83
2017-11-30T13:16:14.460Z,995.85
2017-11-30T13:18:07.664Z,995.75
2017-11-30T13:19:07.593Z,995.78
2017-11-30T13:21:00.853Z,995.77
2017-11-30T13:22:00.763Z,995.75
2017-11-30T13:23:54.009Z,995.77
2017-11-30T13:24:53.937Z,995.75
2017-11-30T13:26:47.202Z,995.74
2017-11-30T13:27:47.111Z,995.78
2017-11-30T13:29:40.378Z,995.75
2017-11-30T13:30:40.283Z,995.72
2017-11-30T13:32:33.529Z,995.72
2017-11-30T13:33:33.453Z,995.74
2017-11-30T13:35:26.728Z,995.79
2017-11-30T13:36:26.628Z,995.78
2017-11-30T13:38:19.873Z,995.77
2017-11-30T13:39:19.828Z,995.83
2017-11-30T13:41:13.060Z,995.81
2017-11-30T13:42:12.971Z,995.78
2017-11-30T13:44:06.217Z,995.78
2017-11-30T13:45:06.160Z,995.77
2017-11-30T13:46:59.402Z,995.82
2017-11-30T13:47:59.311Z,995.78
2017-11-30T13:49:52.575Z,995.80
2017-11-30T13:50:52.487Z,995.77
2017-11-30T13:52:45.729Z,995.78
2017-11-30T13:53:45.657Z,995.79
2017-11-30T13:55:38.920Z,995.74
2017-11-30T13:56:38.850Z,995.70
2017-11-30T13:58:32.069Z,995.76
2017-11-30T13:59:31.999Z,995.73
2017-11-30T14:01:25.263Z,995.76
2017-11-30T14:02:25.167Z,995.79
2017-11-30T14:04:18.421Z,995.77
2017-11-30T14:05:18.339Z,995.80
2017-11-30T14:07:11.663Z,995.81
2017-11-30T14:08:11.511Z,995.80
2017-11-30T14:10:04.774Z,995.84
2017-11-30T14:11:04.683Z,995.82
2017-11-30T14:12:57.926Z,995.83
2017-11-30T14:13:57.851Z,995.80
2017-11-30T14:15:51.113Z,995.84
2017-11-30T14:16:51.023Z,995.82
2017-11-30T14:18:44.269Z,995.86
2017-11-30T14:19:44.198Z,995.86
2017-11-30T14:21:37.461Z,995.84
2017-11-30T14:22:37.366Z,995.87
2017-11-30T14:24:30.610Z,995.88
2017-11-30T14:25:30.539Z,995.89
2017-11-30T14:27:23.801Z,995.90
2017-11-30T14:28:23.710Z,995.92
2017-11-30T14:30:16.973Z,995.93
2017-11-30T14:31:16.881Z,995.90
2017-11-30T14:33:10.158Z,995.94
2017-11-30T14:34:10.051Z,995.95
2017-11-30T14:36:03.400Z,995.97
2017-11-30T14:37:03.301Z,995.94
2017-11-30T14:38:56.546Z,995.94
2017-11-30T14:39:56.473Z,995.97
2017-11-30T14:41:49.735Z,995.93
2017-11-30T14:42:49.642Z,995.95
2017-11-30T14:44:42.888Z,995.98
2017-11-30T14:45:42.815Z,995.99
2017-11-30T14:47:36.079Z,995.98
2017-11-30T14:48:35.985Z,995.99
2017-11-30T14:50:29.253Z,996.00
2017-11-30T14:51:29.161Z,996.01
2017-11-30T14:53:22.403Z,996.04
2017-11-30T14:54:22.331Z,996.01
2017-11-30T14:56:15.602Z,996.03
2017-11-30T14:57:15.544Z,996.10
2017-11-30T14:59:08.760Z,996.03
2017-11-30T15:00:08.688Z,996.12
2017-11-30T15:02:01.953Z,996.10
2017-11-30T15:03:01.868Z,996.16
2017-11-30T15:04:55.105Z,996.16
2017-11-30T15:05:55.087Z,996.15
2017-11-30T15:07:48.295Z,996.15
2017-11-30T15:08:48.202Z,996.13
2017-11-30T15:10:41.464Z,996.18
2017-11-30T15:11:41.373Z,996.16
2017-11-30T15:13:34.622Z,996.21
2017-11-30T15:14:34.549Z,996.23
2017-11-30T15:16:27.808Z,996.21
2017-11-30T15:17:27.748Z,996.23
2017-11-30T15:19:20.962Z,996.23
2017-11-30T15:20:20.889Z,996.23
2017-11-30T15:22:14.153Z,996.25
2017-11-30T15:23:14.064Z,996.23
2017-11-30T15:25:07.406Z,996.22
2017-11-30T15:26:07.308Z,996.25
2017-11-30T15:28:00.569Z,996.26
2017-11-30T15:29:00.475Z,996.22
2017-11-30T15:30:53.741Z,996.27
2017-11-30T15:31:53.651Z,996.23
2017-11-30T15:33:46.947Z,996.26
2017-11-30T15:34:46.875Z,996.25
2017-11-30T15:36:40.137Z,996.30
2017-11-30T15:37:40.046Z,996.26
2017-11-30T15:39:33.378Z,996.30
2017-11-30T15:40:33.307Z,996.31
2017-11-30T15:42:26.567Z,996.34
2017-11-30T15:43:26.482Z,996.34
2017-11-30T15:45:19.743Z,996.37
2017-11-30T15:46:19.686Z,996.35
2017-11-30T15:48:12.916Z,996.38
2017-11-30T15:49:12.823Z,996.40
2017-11-30T15:51:06.162Z,996.43
2017-11-30T15:52:06.127Z,996.46
2017-11-30T15:53:59.235Z,996.42
2017-11-30T15:54:59.162Z,996.45
2017-11-30T15:56:52.425Z,996.41
2017-11-30T15:57:52.335Z,996.43
2017-11-30T15:59:45.578Z,996.51
2017-11-30T16:00:45.506Z,996.50
2017-11-30T16:02:38.775Z,996.50
2017-11-30T16:03:38.680Z,996.49
2017-11-30T16:05:31.960Z,996.48
2017-11-30T16:06:31.869Z,996.51
2017-11-30T16:08:25.115Z,996.49
2017-11-30T16:09:25.039Z,996.50
2017-11-30T16:11:18.304Z,996.50
2017-11-30T16:12:18.214Z,996.55
2017-11-30T16:14:11.458Z,996.53
2017-11-30T16:15:11.383Z,996.54
2017-11-30T16:17:05.651Z,996.59
2017-11-30T16:18:05.553Z,996.56
2017-11-30T16:19:58.799Z,996.61
2017-11-30T16:20:58.728Z,996.61
2017-11-30T16:22:51.984Z,996.61
2017-11-30T16:23:51.896Z,996.61
2017-11-30T16:25:45.180Z,996.65
2017-11-30T16:26:45.088Z,996.66
2017-11-30T16:28:38.333Z,996.68
2017-11-30T16:29:38.258Z,996.67
2017-11-30T16:31:31.526Z,996.65
2017-11-30T16:32:31.444Z,996.69
2017-11-30T16:34:24.691Z,996.71
2017-11-30T16:35:24.621Z,996.69
2017-11-30T16:37:17.893Z,996.72
2017-11-30T16:38:17.804Z,996.68
2017-11-30T16:40:11.055Z,996.72
2017-11-30T16:41:10.982Z,996.78
2017-11-30T16:43:04.254Z,996.70
2017-11-30T16:44:04.163Z,996.75
2017-11-30T16:45:57.430Z,996.70
2017-11-30T16:46:57.341Z,996.83
2017-11-30T16:48:50.596Z,996.74
2017-11-30T16:49:50.524Z,996.80
2017-11-30T16:51:43.784Z,996.79
2017-11-30T16:52:43.693Z,996.79
2017-11-30T16:54:36.937Z,996.80
2017-11-30T16:55:36.884Z,996.82
2017-11-30T16:57:30.122Z,996.78
2017-11-30T16:58:30.029Z,996.81
2017-11-30T17:00:23.270Z,996.82
2017-11-30T17:01:23.197Z,996.79
2017-11-30T17:03:16.459Z,996.85
2017-11-30T17:04:16.364Z,996.85
2017-11-30T17:06:09.625Z,996.89
2017-11-30T17:07:09.532Z,996.81
2017-11-30T17:09:02.775Z,996.93
2017-11-30T17:10:02.710Z,996.90
2017-11-30T17:11:55.963Z,996.97
2017-11-30T17:12:55.871Z,996.92
2017-11-30T17:14:49.123Z,996.96
2017-11-30T17:15:49.049Z,996.96
2017-11-30T17:17:42.311Z,996.97
2017-11-30T17:18:42.217Z,996.94
2017-11-30T17:20:35.491Z,996.92
2017-11-30T17:21:35.420Z,996.96
2017-11-30T17:23:28.683Z,996.97
2017-11-30T17:24:28.587Z,997.04
2017-11-30T17:26:21.848Z,997.02
2017-11-30T17:27:21.757Z,997.01
2017-11-30T17:29:15.009Z,997.03
2017-11-30T17:30:14.948Z,997.07
2017-11-30T17:32:08.196Z,997.05
2017-11-30T17:33:08.104Z,997.06
2017-11-30T17:35:01.373Z,997.06
2017-11-30T17:36:01.300Z,997.03
2017-11-30T17:37:54.633Z,997.05
2017-11-30T17:38:54.471Z,997.05
2017-11-30T17:40:47.709Z,997.09
2017-11-30T17:41:47.633Z,997.13
2017-11-30T17:43:40.903Z,997.11
2017-11-30T17:44:40.799Z,997.13
2017-11-30T17:46:34.066Z,997.20
2017-11-30T17:47:33.975Z,997.17
2017-11-30T17:49:27.216Z,997.21
2017-11-30T17:50:27.142Z,997.22
2017-11-30T17:52:20.410Z,997.19
2017-11-30T17:53:20.316Z,997.24
2017-11-30T17:55:13.583Z,997.25
2017-11-30T17:56:13.498Z,997.25
2017-11-30T17:58:06.759Z,997.23
2017-11-30T17:59:06.660Z,997.25
2017-11-30T18:00:59.926Z,997.28